Time,TemperatureF,DewpointF,PressureIn,WindDirection,WindDirectionDegrees,WindSpeedMPH,WindSpeedGustMPH,Humidity,HourlyPrecipIn,Conditions,Clouds,dailyrainin,SoftwareType,DateUTC
2013-01-28 00:01:00,35.0,30.4,30.62,SSW,195,0.0,0.0,83,0.00,,,0.00,Wunderground v.1.15,2013-01-28 05:01:00,
2013-01-28 00:06:00,35.2,30.3,30.63,West,259,0.0,1.0,82,0.00,,,0.00,Wunderground v.1.15,2013-01-28 05:06:00,
2013-01-28 00:11:00,35.5,29.9,30.62,South,191,0.0,0.0,80,0.00,,,0.00,Wunderground v.1.15,2013-01-28 05:11:00,
2013-01-28 00:16:00,35.7,30.1,30.62,WSW,240,1.0,2.0,80,0.00,,,0.00,Wunderground v.1.15,2013-01-28 05:16:00,
2013-01-28 00:21:00,35.8,29.9,30.63,South,179,1.0,1.0,79,0.00,,,0.00,Wunderground v.1.15,2013-01-28 05:21:00,
2013-01-28 00:26:00,35.9,30.0,30.63,SSW,207,1.0,1.0,79,0.00,,,0.00,Wunderground v.1.15,2013-01-28 05:26:00,
2013-01-28 00:31:00,35.9,29.7,30.62,SSW,200,1.0,1.0,78,0.00,,,0.00,Wunderground v.1.15,2013-01-28 05:31:00,
2013-01-28 00:36:00,35.8,29.9,30.63,East,99,0.0,1.0,79,0.00,,,0.00,Wunderground v.1.15,2013-01-28 05:36:00,
2013-01-28 00:46:00,35.6,29.7,30.62,SSE,159,0.0,0.0,79,0.00,,,0.00,Wunderground v.1.15,2013-01-28 05:46:00,
2013-01-28 00:51:00,35.6,29.7,30.63,SSE,153,0.0,0.0,79,0.00,,,0.00,Wunderground v.1.15,2013-01-28 05:51:00,
2013-01-28 01:01:00,35.5,29.6,30.62,SW,236,0.0,0.0,79,0.00,,,0.00,Wunderground v.1.15,2013-01-28 06:01:00,
2013-01-28 01:06:00,35.5,29.6,30.62,SSW,201,0.0,0.0,79,0.00,,,0.00,Wunderground v.1.15,2013-01-28 06:06:00,
2013-01-28 01:11:00,35.6,29.4,30.62,South,186,0.0,0.0,78,0.00,,,0.00,Wunderground v.1.15,2013-01-28 06:11:00,
2013-01-28 01:16:00,35.6,29.4,30.62,WSW,252,0.0,0.0,78,0.00,,,0.00,Wunderground v.1.15,2013-01-28 06:16:00,
2013-01-28 01:26:00,35.5,29.3,30.62,South,181,0.0,0.0,78,0.00,,,0.00,Wunderground v.1.15,2013-01-28 06:26:00,
2013-01-28 01:36:00,35.6,29.4,30.62,WSW,252,0.0,0.0,78,0.00,,,0.00,Wunderground v.1.15,2013-01-28 06:36:00,
2013-01-28 01:41:00,35.6,29.4,30.61,SW,236,0.0,0.0,78,0.00,,,0.00,Wunderground v.1.15,2013-01-28 06:41:00,
2013-01-28 01:46:00,35.5,29.0,30.61,WSW,253,0.0,0.0,77,0.00,,,0.00,Wunderground v.1.15,2013-01-28 06:46:00,
2013-01-28 01:51:00,35.4,28.9,30.61,WSW,255,0.0,0.0,77,0.00,,,0.00,Wunderground v.1.15,2013-01-28 06:51:00,
2013-01-28 01:56:00,35.5,29.3,30.61,SSE,148,0.0,0.0,78,0.00,,,0.00,Wunderground v.1.15,2013-01-28 06:56:00,
2013-01-28 02:06:00,35.2,29.0,30.61,SE,127,0.0,0.0,78,0.00,,,0.00,Wunderground v.1.15,2013-01-28 07:06:00,
2013-01-28 02:15:00,35.1,29.2,30.61,SE,127,0.0,0.0,79,0.00,,,0.00,Wunderground v.1.15,2013-01-28 07:15:00,
2013-01-28 02:21:00,35.3,28.8,30.60,SSE,155,0.0,0.0,77,0.00,,,0.00,Wunderground v.1.15,2013-01-28 07:21:00,
2013-01-28 02:26:00,35.5,29.0,30.60,SW,214,0.0,0.0,77,0.00,,,0.00,Wunderground v.1.15,2013-01-28 07:26:00,
2013-01-28 02:31:00,35.6,28.8,30.60,SE,139,0.0,0.0,76,0.00,,,0.00,Wunderground v.1.15,2013-01-28 07:31:00,
2013-01-28 02:36:00,35.7,29.2,30.59,SSW,204,0.0,0.0,77,0.00,,,0.00,Wunderground v.1.15,2013-01-28 07:36:00,
2013-01-28 02:41:00,35.7,29.2,30.60,NW,319,0.0,0.0,77,0.00,,,0.00,Wunderground v.1.15,2013-01-28 07:41:00,
2013-01-28 02:46:00,35.9,29.4,30.60,NNW,327,0.0,0.0,77,0.00,,,0.00,Wunderground v.1.15,2013-01-28 07:46:00,
2013-01-28 02:51:00,36.1,29.3,30.61,NW,319,0.0,0.0,76,0.00,,,0.00,Wunderground v.1.15,2013-01-28 07:51:00,
2013-01-28 02:56:00,36.3,29.5,30.60,NW,316,0.0,0.0,76,0.00,,,0.00,Wunderground v.1.15,2013-01-28 07:56:00,
2013-01-28 03:01:00,36.4,29.6,30.60,West,272,0.0,2.0,76,0.00,,,0.00,Wunderground v.1.15,2013-01-28 08:01:00,
2013-01-28 03:10:00,37.0,29.5,30.61,WSW,253,0.0,0.0,74,0.00,,,0.00,Wunderground v.1.15,2013-01-28 08:10:00,
2013-01-28 03:15:00,37.2,29.3,30.60,NW,322,0.0,2.0,73,0.00,,,0.00,Wunderground v.1.15,2013-01-28 08:15:00,
2013-01-28 03:21:00,37.3,29.4,30.61,SSW,203,1.0,1.0,73,0.00,,,0.00,Wunderground v.1.15,2013-01-28 08:21:00,
2013-01-28 03:26:00,37.3,29.1,30.61,SW,235,1.0,1.0,72,0.00,,,0.00,Wunderground v.1.15,2013-01-28 08:26:00,
2013-01-28 03:31:00,37.2,29.7,30.61,SW,231,0.0,0.0,74,0.00,,,0.00,Wunderground v.1.15,2013-01-28 08:31:00,
2013-01-28 03:36:00,37.1,29.2,30.60,NNW,332,0.0,2.0,73,0.00,,,0.00,Wunderground v.1.15,2013-01-28 08:36:00,
2013-01-28 03:41:00,37.2,29.3,30.60,NW,323,0.0,1.0,73,0.00,,,0.00,Wunderground v.1.15,2013-01-28 08:41:00,
2013-01-28 03:51:00,37.4,29.2,30.60,SW,221,1.0,1.0,72,0.00,,,0.00,Wunderground v.1.15,2013-01-28 08:51:00,
2013-01-28 03:56:00,37.6,29.4,30.60,West,281,0.0,1.0,72,0.00,,,0.00,Wunderground v.1.15,2013-01-28 08:56:00,
2013-01-28 04:05:00,37.8,29.6,30.59,West,262,0.0,0.0,72,0.00,,,0.00,Wunderground v.1.15,2013-01-28 09:05:00,
2013-01-28 04:11:00,38.0,29.8,30.59,West,262,0.0,0.0,72,0.00,,,0.00,Wunderground v.1.15,2013-01-28 09:11:00,
2013-01-28 04:16:00,38.1,30.2,30.59,WNW,297,0.0,1.0,73,0.00,,,0.00,Wunderground v.1.15,2013-01-28 09:16:00,
2013-01-28 04:26:00,38.5,29.9,30.59,NNW,330,1.0,2.0,71,0.00,,,0.00,Wunderground v.1.15,2013-01-28 09:26:00,
2013-01-28 04:31:00,38.5,30.3,30.59,NNW,333,1.0,2.0,72,0.00,,,0.00,Wunderground v.1.15,2013-01-28 09:31:00,
2013-01-28 04:36:00,38.7,30.1,30.59,NW,317,1.0,2.0,71,0.00,,,0.00,Wunderground v.1.15,2013-01-28 09:36:00,
2013-01-28 04:41:00,38.7,30.1,30.59,SSW,205,1.0,1.0,71,0.00,,,0.00,Wunderground v.1.15,2013-01-28 09:41:00,
2013-01-28 04:46:00,38.8,30.2,30.59,NW,304,1.0,1.0,71,0.00,,,0.00,Wunderground v.1.15,2013-01-28 09:46:00,
2013-01-28 04:51:00,38.9,30.6,30.59,WSW,244,0.0,0.0,72,0.00,,,0.00,Wunderground v.1.15,2013-01-28 09:51:00,
2013-01-28 04:56:00,38.9,30.3,30.59,NW,326,0.0,0.0,71,0.00,,,0.00,Wunderground v.1.15,2013-01-28 09:56:00,
2013-01-28 05:05:00,39.2,30.6,30.59,ESE,104,1.0,2.0,71,0.00,,,0.00,Wunderground v.1.15,2013-01-28 10:05:00,
2013-01-28 05:11:00,39.3,30.7,30.59,SW,235,1.0,1.0,71,0.00,,,0.00,Wunderground v.1.15,2013-01-28 10:11:00,
2013-01-28 05:16:00,39.3,31.0,30.60,SE,146,0.0,1.0,72,0.00,,,0.00,Wunderground v.1.15,2013-01-28 10:16:00,
2013-01-28 05:21:00,39.4,31.5,30.60,SSW,203,0.0,0.0,73,0.00,,,0.00,Wunderground v.1.15,2013-01-28 10:21:00,
2013-01-28 05:26:00,39.4,31.5,30.60,WNW,282,0.0,0.0,73,0.00,,,0.00,Wunderground v.1.15,2013-01-28 10:26:00,
2013-01-28 05:36:00,39.6,32.3,30.60,SSW,205,0.0,1.0,75,0.00,,,0.00,Wunderground v.1.15,2013-01-28 10:36:00,
2013-01-28 05:41:00,39.8,32.8,30.59,NW,305,0.0,0.0,76,0.00,,,0.00,Wunderground v.1.15,2013-01-28 10:41:00,
2013-01-28 05:46:00,39.8,32.8,30.59,SSE,149,0.0,0.0,76,0.00,,,0.00,Wunderground v.1.15,2013-01-28 10:46:00,
2013-01-28 05:56:00,39.3,33.0,30.60,West,260,0.0,0.0,78,0.00,,,0.00,Wunderground v.1.15,2013-01-28 10:56:00,
2013-01-28 06:01:00,39.3,33.6,30.60,WSW,248,0.0,0.0,80,0.00,,,0.00,Wunderground v.1.15,2013-01-28 11:01:00,
2013-01-28 06:06:00,39.6,33.9,30.60,West,280,1.0,1.0,80,0.00,,,0.00,Wunderground v.1.15,2013-01-28 11:06:00,
2013-01-28 06:11:00,39.7,34.0,30.60,NW,312,0.0,0.0,80,0.00,,,0.00,Wunderground v.1.15,2013-01-28 11:11:00,
2013-01-28 06:16:00,39.7,34.0,30.60,NNW,335,0.0,1.0,80,0.00,,,0.00,Wunderground v.1.15,2013-01-28 11:16:00,
2013-01-28 06:21:00,39.9,34.9,30.60,SSW,201,0.0,0.0,82,0.00,,,0.00,Wunderground v.1.15,2013-01-28 11:21:00,
2013-01-28 06:26:00,40.2,35.4,30.60,West,274,0.0,0.0,83,0.00,,,0.00,Wunderground v.1.15,2013-01-28 11:26:00,
2013-01-28 06:31:00,40.2,35.4,30.60,NW,307,0.0,0.0,83,0.00,,,0.00,Wunderground v.1.15,2013-01-28 11:31:00,
2013-01-28 06:45:00,40.8,37.2,30.60,WSW,255,0.0,0.0,87,0.00,,,0.00,Wunderground v.1.15,2013-01-28 11:45:00,
2013-01-28 06:50:00,41.0,37.4,30.60,WSW,255,0.0,0.0,87,0.00,,,0.00,Wunderground v.1.15,2013-01-28 11:50:00,
2013-01-28 06:56:00,41.2,37.6,30.60,SW,214,0.0,0.0,87,0.00,,,0.00,Wunderground v.1.15,2013-01-28 11:56:00,
2013-01-28 07:01:00,41.6,38.3,30.60,SW,229,0.0,0.0,88,0.00,,,0.00,Wunderground v.1.15,2013-01-28 12:01:00,
2013-01-28 07:06:00,41.9,38.6,30.60,SW,229,0.0,0.0,88,0.00,,,0.00,Wunderground v.1.15,2013-01-28 12:06:00,
2013-01-28 07:11:00,42.0,38.4,30.60,SW,229,0.0,0.0,87,0.00,,,0.00,Wunderground v.1.15,2013-01-28 12:11:00,
2013-01-28 07:16:00,42.1,38.8,30.60,SW,229,0.0,0.0,88,0.00,,,0.00,Wunderground v.1.15,2013-01-28 12:16:00,
2013-01-28 07:21:00,42.3,39.0,30.60,SE,134,0.0,0.0,88,0.00,,,0.00,Wunderground v.1.15,2013-01-28 12:21:00,
2013-01-28 07:26:00,42.3,38.7,30.60,SE,135,0.0,0.0,87,0.00,,,0.00,Wunderground v.1.15,2013-01-28 12:26:00,
2013-01-28 07:31:00,42.2,38.3,30.60,SE,136,0.0,0.0,86,0.00,,,0.00,Wunderground v.1.15,2013-01-28 12:31:00,
2013-01-28 07:40:00,41.6,37.4,30.60,SE,135,0.0,0.0,85,0.00,,,0.00,Wunderground v.1.15,2013-01-28 12:40:00,
2013-01-28 07:45:00,41.4,37.5,30.60,SE,136,0.0,0.0,86,0.00,,,0.00,Wunderground v.1.15,2013-01-28 12:45:00,
2013-01-28 07:51:00,41.3,37.7,30.60,SE,135,0.0,0.0,87,0.00,,,0.00,Wunderground v.1.15,2013-01-28 12:51:00,
2013-01-28 07:56:00,41.2,37.3,30.60,SE,134,0.0,0.0,86,0.00,,,0.00,Wunderground v.1.15,2013-01-28 12:56:00,
2013-01-28 08:01:00,41.0,37.1,30.60,West,265,0.0,0.0,86,0.00,,,0.00,Wunderground v.1.15,2013-01-28 13:01:00,
2013-01-28 08:06:00,41.0,36.8,30.60,West,265,0.0,0.0,85,0.00,,,0.00,Wunderground v.1.15,2013-01-28 13:06:00,
2013-01-28 08:11:00,41.1,38.1,30.60,West,264,0.0,0.0,89,0.00,,,0.00,Wunderground v.1.15,2013-01-28 13:11:00,
2013-01-28 08:16:00,41.7,39.3,30.60,West,263,0.0,0.0,91,0.00,,,0.00,Wunderground v.1.15,2013-01-28 13:16:00,
2013-01-28 08:26:00,42.9,40.5,30.60,West,264,0.0,0.0,91,0.00,,,0.00,Wunderground v.1.15,2013-01-28 13:26:00,
2013-01-28 08:31:00,43.1,40.7,30.60,West,269,0.0,0.0,91,0.00,,,0.00,Wunderground v.1.15,2013-01-28 13:31:00,
2013-01-28 08:41:00,43.6,41.1,30.60,West,269,0.0,0.0,91,0.00,,,0.00,Wunderground v.1.15,2013-01-28 13:41:00,
2013-01-28 08:46:00,43.9,41.4,30.60,SSW,207,0.0,0.0,91,0.00,,,0.00,Wunderground v.1.15,2013-01-28 13:46:00,
2013-01-28 08:51:00,44.1,41.6,30.61,NNE,22,0.0,0.0,91,0.00,,,0.00,Wunderground v.1.15,2013-01-28 13:51:00,
2013-01-28 09:01:00,43.2,39.9,30.61,NNW,347,0.0,0.0,88,0.00,,,0.00,Wunderground v.1.15,2013-01-28 14:01:00,
2013-01-28 09:06:00,42.8,40.1,30.60,NNW,347,0.0,0.0,90,0.00,,,0.00,Wunderground v.1.15,2013-01-28 14:06:00,
2013-01-28 09:11:00,42.8,40.4,30.60,NNW,347,0.0,0.0,91,0.00,,,0.00,Wunderground v.1.15,2013-01-28 14:11:00,
2013-01-28 09:16:00,43.0,40.8,30.60,NNW,348,0.0,0.0,92,0.00,,,0.00,Wunderground v.1.15,2013-01-28 14:16:00,
2013-01-28 09:21:00,43.3,41.4,30.60,North,349,0.0,0.0,93,0.00,,,0.00,Wunderground v.1.15,2013-01-28 14:21:00,
2013-01-28 09:31:00,43.8,41.9,30.59,ESE,115,0.0,0.0,93,0.00,,,0.00,Wunderground v.1.15,2013-01-28 14:31:00,
2013-01-28 09:41:00,44.2,42.3,30.59,North,10,0.0,0.0,93,0.00,,,0.00,Wunderground v.1.15,2013-01-28 14:41:00,
2013-01-28 09:46:00,44.1,42.2,30.59,West,276,0.0,0.0,93,0.00,,,0.00,Wunderground v.1.15,2013-01-28 14:46:00,
2013-01-28 09:51:00,44.3,42.7,30.59,SE,136,0.0,0.0,94,0.00,,,0.00,Wunderground v.1.15,2013-01-28 14:51:00,
2013-01-28 09:56:00,44.9,43.3,30.59,NNE,20,0.0,0.0,94,0.00,,,0.00,Wunderground v.1.15,2013-01-28 14:56:00,
2013-01-28 10:06:00,45.6,44.3,30.58,NNW,343,0.0,0.0,95,0.00,,,0.00,Wunderground v.1.15,2013-01-28 15:06:00,
2013-01-28 10:11:00,45.8,44.4,30.58,NNW,335,0.0,0.0,95,0.00,,,0.00,Wunderground v.1.15,2013-01-28 15:11:00,
2013-01-28 10:16:00,46.1,44.7,30.58,SE,143,0.0,0.0,95,0.00,,,0.00,Wunderground v.1.15,2013-01-28 15:16:00,
2013-01-28 10:25:00,46.7,45.3,30.58,SW,214,0.0,0.0,95,0.00,,,0.00,Wunderground v.1.15,2013-01-28 15:25:00,
2013-01-28 10:31:00,46.9,45.5,30.58,SSW,202,0.0,0.0,95,0.00,,,0.00,Wunderground v.1.15,2013-01-28 15:31:00,
2013-01-28 10:41:00,47.3,45.9,30.59,West,278,0.0,1.0,95,0.00,,,0.00,Wunderground v.1.15,2013-01-28 15:41:00,
2013-01-28 10:46:00,47.5,46.1,30.59,West,265,1.0,2.0,95,0.00,,,0.00,Wunderground v.1.15,2013-01-28 15:46:00,
2013-01-28 10:51:00,47.8,46.4,30.59,ESE,115,0.0,0.0,95,0.00,,,0.00,Wunderground v.1.15,2013-01-28 15:51:00,
2013-01-28 10:56:00,48.1,46.5,30.59,SSE,163,0.0,0.0,94,0.00,,,0.00,Wunderground v.1.15,2013-01-28 15:56:00,
2013-01-28 11:01:00,48.4,46.8,30.58,SW,214,0.0,0.0,94,0.00,,,0.00,Wunderground v.1.15,2013-01-28 16:01:00,
2013-01-28 11:06:00,48.8,47.2,30.58,South,169,0.0,0.0,94,0.00,,,0.00,Wunderground v.1.15,2013-01-28 16:06:00,
2013-01-28 11:15:00,49.3,47.1,30.58,WSW,247,0.0,0.0,92,0.00,,,0.00,Wunderground v.1.15,2013-01-28 16:15:00,
2013-01-28 11:20:00,49.6,47.4,30.57,SE,145,0.0,0.0,92,0.00,,,0.00,Wunderground v.1.15,2013-01-28 16:20:00,
2013-01-28 11:26:00,49.9,47.7,30.57,SE,127,0.0,0.0,92,0.00,,,0.00,Wunderground v.1.15,2013-01-28 16:26:00,
2013-01-28 11:31:00,50.2,47.7,30.56,SE,136,0.0,0.0,91,0.00,,,0.00,Wunderground v.1.15,2013-01-28 16:31:00,
2013-01-28 11:36:00,50.7,48.2,30.56,SSE,166,0.0,0.0,91,0.00,,,0.00,Wunderground v.1.15,2013-01-28 16:36:00,
2013-01-28 11:41:00,51.4,48.6,30.56,South,179,0.0,0.0,90,0.00,,,0.00,Wunderground v.1.15,2013-01-28 16:41:00,
2013-01-28 11:46:00,51.9,48.5,30.56,SSE,156,1.0,1.0,88,0.00,,,0.00,Wunderground v.1.15,2013-01-28 16:46:00,
2013-01-28 11:51:00,52.0,48.6,30.55,SSE,167,1.0,2.0,88,0.00,,,0.00,Wunderground v.1.15,2013-01-28 16:51:00,
2013-01-28 12:00:00,53.1,49.0,30.54,SSW,193,2.0,2.0,86,0.00,,,0.00,Wunderground v.1.15,2013-01-28 17:00:00,
2013-01-28 12:06:00,53.3,49.2,30.54,SE,135,2.0,3.0,86,0.00,,,0.00,Wunderground v.1.15,2013-01-28 17:06:00,
2013-01-28 12:11:00,53.6,49.2,30.54,South,169,2.0,2.0,85,0.00,,,0.00,Wunderground v.1.15,2013-01-28 17:11:00,
2013-01-28 12:16:00,54.4,49.7,30.53,West,262,1.0,2.0,84,0.00,,,0.00,Wunderground v.1.15,2013-01-28 17:16:00,
2013-01-28 12:21:00,54.9,49.5,30.52,SSE,155,1.0,1.0,82,0.00,,,0.00,Wunderground v.1.15,2013-01-28 17:21:00,
2013-01-28 12:26:00,55.2,49.8,30.51,SSE,156,1.0,1.0,82,0.00,,,0.00,Wunderground v.1.15,2013-01-28 17:26:00,
2013-01-28 12:31:00,55.6,49.9,30.51,SE,142,1.0,1.0,81,0.00,,,0.00,Wunderground v.1.15,2013-01-28 17:31:00,
2013-01-28 12:36:00,55.8,49.7,30.50,SSE,156,1.0,1.0,80,0.00,,,0.00,Wunderground v.1.15,2013-01-28 17:36:00,
2013-01-28 12:41:00,55.9,49.8,30.50,SE,136,1.0,1.0,80,0.00,,,0.00,Wunderground v.1.15,2013-01-28 17:41:00,
2013-01-28 12:51:00,56.8,49.7,30.49,NE,41,0.0,0.0,77,0.00,,,0.00,Wunderground v.1.15,2013-01-28 17:51:00,
2013-01-28 12:56:00,57.2,50.4,30.49,WNW,288,1.0,1.0,78,0.00,,,0.00,Wunderground v.1.15,2013-01-28 17:56:00,
2013-01-28 13:01:00,57.6,50.1,30.48,ESE,118,1.0,1.0,76,0.00,,,0.00,Wunderground v.1.15,2013-01-28 18:01:00,
2013-01-28 13:06:00,58.3,50.0,30.47,South,179,0.0,3.0,74,0.00,,,0.00,Wunderground v.1.15,2013-01-28 18:06:00,
2013-01-28 13:11:00,58.9,49.5,30.47,SW,236,1.0,1.0,71,0.00,,,0.00,Wunderground v.1.15,2013-01-28 18:11:00,
2013-01-28 13:16:00,59.1,49.7,30.47,SE,131,1.0,1.0,71,0.00,,,0.00,Wunderground v.1.15,2013-01-28 18:16:00,
2013-01-28 13:21:00,59.1,49.3,30.46,SE,136,1.0,2.0,70,0.00,,,0.00,Wunderground v.1.15,2013-01-28 18:21:00,
2013-01-28 13:30:00,59.8,48.8,30.45,WSW,246,2.0,2.0,67,0.00,,,0.00,Wunderground v.1.15,2013-01-28 18:30:00,
2013-01-28 13:35:00,60.1,48.7,30.44,SSW,200,2.0,2.0,66,0.00,,,0.00,Wunderground v.1.15,2013-01-28 18:35:00,
2013-01-28 13:41:00,60.4,48.6,30.44,WNW,297,2.0,2.0,65,0.00,,,0.00,Wunderground v.1.15,2013-01-28 18:41:00,
2013-01-28 13:46:00,60.5,49.1,30.44,WSW,258,2.0,2.0,66,0.00,,,0.00,Wunderground v.1.15,2013-01-28 18:46:00,
2013-01-28 13:51:00,60.4,48.6,30.44,South,177,2.0,5.0,65,0.00,,,0.00,Wunderground v.1.15,2013-01-28 18:51:00,
2013-01-28 13:56:00,60.1,48.3,30.43,SE,138,2.0,5.0,65,0.00,,,0.00,Wunderground v.1.15,2013-01-28 18:56:00,
2013-01-28 14:01:00,59.9,48.5,30.43,SSE,162,2.0,4.0,66,0.00,,,0.00,Wunderground v.1.15,2013-01-28 19:01:00,
2013-01-28 14:06:00,59.9,48.5,30.43,SSE,163,2.0,4.0,66,0.00,,,0.00,Wunderground v.1.15,2013-01-28 19:06:00,
2013-01-28 14:11:00,60.1,49.1,30.41,SW,226,3.0,3.0,67,0.00,,,0.00,Wunderground v.1.15,2013-01-28 19:11:00,
2013-01-28 14:16:00,60.4,49.0,30.41,South,172,3.0,3.0,66,0.00,,,0.00,Wunderground v.1.15,2013-01-28 19:16:00,
2013-01-28 14:21:00,60.1,48.7,30.40,NE,48,3.0,3.0,66,0.00,,,0.00,Wunderground v.1.15,2013-01-28 19:21:00,
2013-01-28 14:31:00,59.9,48.5,30.40,SW,221,3.0,6.0,66,0.00,,,0.00,Wunderground v.1.15,2013-01-28 19:31:00,
2013-01-28 14:41:00,59.8,48.0,30.40,SW,220,4.0,4.0,65,0.00,,,0.00,Wunderground v.1.15,2013-01-28 19:41:00,
2013-01-28 14:46:00,59.7,48.7,30.40,SE,127,4.0,4.0,67,0.00,,,0.00,Wunderground v.1.15,2013-01-28 19:46:00,
2013-01-28 14:51:00,59.7,48.3,30.40,WNW,287,3.0,3.0,66,0.00,,,0.00,Wunderground v.1.15,2013-01-28 19:51:00,
2013-01-28 14:56:00,59.6,48.2,30.40,SSE,162,3.0,3.0,66,0.00,,,0.00,Wunderground v.1.15,2013-01-28 19:56:00,
2013-01-28 15:01:00,59.7,48.7,30.40,South,181,3.0,3.0,67,0.00,,,0.00,Wunderground v.1.15,2013-01-28 20:01:00,
2013-01-28 15:06:00,59.7,48.3,30.40,SSE,155,2.0,3.0,66,0.00,,,0.00,Wunderground v.1.15,2013-01-28 20:06:00,
2013-01-28 15:11:00,59.6,48.2,30.40,SE,127,2.0,2.0,66,0.00,,,0.00,Wunderground v.1.15,2013-01-28 20:11:00,
2013-01-28 15:16:00,59.8,48.8,30.40,SSE,162,2.0,3.0,67,0.00,,,0.00,Wunderground v.1.15,2013-01-28 20:16:00,
2013-01-28 15:25:00,59.7,48.7,30.40,SW,221,2.0,3.0,67,0.00,,,0.00,Wunderground v.1.15,2013-01-28 20:25:00,
2013-01-28 15:31:00,59.6,49.0,30.40,SSW,193,2.0,3.0,68,0.00,,,0.00,Wunderground v.1.15,2013-01-28 20:31:00,
2013-01-28 15:36:00,59.3,48.7,30.40,SE,139,2.0,3.0,68,0.00,,,0.00,Wunderground v.1.15,2013-01-28 20:36:00,
2013-01-28 15:41:00,59.4,48.8,30.40,South,177,3.0,3.0,68,0.00,,,0.00,Wunderground v.1.15,2013-01-28 20:41:00,
2013-01-28 15:51:00,59.0,48.8,30.40,SE,124,2.0,2.0,69,0.00,,,0.00,Wunderground v.1.15,2013-01-28 20:51:00,
2013-01-28 15:56:00,58.9,49.1,30.40,SE,132,2.0,4.0,70,0.00,,,0.00,Wunderground v.1.15,2013-01-28 20:56:00,
2013-01-28 16:01:00,58.8,49.0,30.40,SSW,212,2.0,2.0,70,0.00,,,0.00,Wunderground v.1.15,2013-01-28 21:01:00,
2013-01-28 16:06:00,58.7,48.9,30.40,SSE,152,2.0,2.0,70,0.00,,,0.00,Wunderground v.1.15,2013-01-28 21:06:00,
2013-01-28 16:11:00,58.6,49.2,30.39,WSW,249,1.0,1.0,71,0.00,,,0.00,Wunderground v.1.15,2013-01-28 21:11:00,
2013-01-28 16:21:00,58.3,49.3,30.39,SSW,197,2.0,2.0,72,0.00,,,0.00,Wunderground v.1.15,2013-01-28 21:21:00,
2013-01-28 16:31:00,57.8,49.2,30.39,East,79,2.0,2.0,73,0.00,,,0.00,Wunderground v.1.15,2013-01-28 21:31:00,
2013-01-28 16:36:00,57.7,49.1,30.39,NW,313,2.0,2.0,73,0.00,,,0.00,Wunderground v.1.15,2013-01-28 21:36:00,
2013-01-28 16:41:00,57.5,48.9,30.38,SSW,212,1.0,2.0,73,0.00,,,0.00,Wunderground v.1.15,2013-01-28 21:41:00,
2013-01-28 16:46:00,57.4,49.2,30.39,SW,233,1.0,2.0,74,0.00,,,0.00,Wunderground v.1.15,2013-01-28 21:46:00,
2013-01-28 16:56:00,57.0,48.8,30.39,SSW,193,1.0,3.0,74,0.00,,,0.00,Wunderground v.1.15,2013-01-28 21:56:00,
2013-01-28 17:01:00,56.8,49.0,30.39,West,264,1.0,1.0,75,0.00,,,0.00,Wunderground v.1.15,2013-01-28 22:01:00,
2013-01-28 17:06:00,56.6,48.8,30.39,SE,146,2.0,2.0,75,0.00,,,0.00,Wunderground v.1.15,2013-01-28 22:06:00,
2013-01-28 17:15:00,56.3,48.8,30.39,SW,232,2.0,3.0,76,0.00,,,0.00,Wunderground v.1.15,2013-01-28 22:15:00,
2013-01-28 17:21:00,56.1,48.6,30.39,SW,221,1.0,1.0,76,0.00,,,0.00,Wunderground v.1.15,2013-01-28 22:21:00,
2013-01-28 17:31:00,55.6,48.5,30.39,SW,229,0.0,0.0,77,0.00,,,0.00,Wunderground v.1.15,2013-01-28 22:31:00,
2013-01-28 17:36:00,55.4,48.7,30.39,SW,226,0.0,0.0,78,0.00,,,0.00,Wunderground v.1.15,2013-01-28 22:36:00,
2013-01-28 17:41:00,55.1,48.4,30.39,SW,233,0.0,0.0,78,0.00,,,0.00,Wunderground v.1.15,2013-01-28 22:41:00,
2013-01-28 17:46:00,54.8,48.4,30.39,WSW,256,0.0,0.0,79,0.00,,,0.00,Wunderground v.1.15,2013-01-28 22:46:00,
2013-01-28 17:51:00,54.6,48.2,30.39,SSW,193,0.0,0.0,79,0.00,,,0.00,Wunderground v.1.15,2013-01-28 22:51:00,
2013-01-28 17:56:00,54.3,47.9,30.39,SW,214,0.0,0.0,79,0.00,,,0.00,Wunderground v.1.15,2013-01-28 22:56:00,
2013-01-28 18:06:00,53.6,47.6,30.39,West,271,0.0,0.0,80,0.00,,,0.00,Wunderground v.1.15,2013-01-28 23:06:00,
2013-01-28 18:11:00,53.4,47.7,30.39,West,278,0.0,0.0,81,0.00,,,0.00,Wunderground v.1.15,2013-01-28 23:11:00,
2013-01-28 18:20:00,53.4,47.7,30.40,SW,226,0.0,0.0,81,0.00,,,0.00,Wunderground v.1.15,2013-01-28 23:20:00,
2013-01-28 18:26:00,53.0,47.3,30.39,SW,233,0.0,0.0,81,0.00,,,0.00,Wunderground v.1.15,2013-01-28 23:26:00,
2013-01-28 18:31:00,52.8,47.5,30.39,WSW,247,0.0,0.0,82,0.00,,,0.00,Wunderground v.1.15,2013-01-28 23:31:00,
2013-01-28 18:41:00,52.7,47.7,30.39,SW,218,0.0,0.0,83,0.00,,,0.00,Wunderground v.1.15,2013-01-28 23:41:00,
2013-01-28 18:46:00,52.6,47.6,30.40,SW,229,0.0,0.0,83,0.00,,,0.00,Wunderground v.1.15,2013-01-28 23:46:00,
2013-01-28 18:51:00,52.5,47.8,30.40,SW,229,0.0,0.0,84,0.00,,,0.00,Wunderground v.1.15,2013-01-28 23:51:00,
2013-01-28 18:56:00,52.4,47.7,30.40,West,260,0.0,0.0,84,0.00,,,0.00,Wunderground v.1.15,2013-01-28 23:56:00,
2013-01-28 19:01:00,52.3,47.6,30.40,SW,224,0.0,0.0,84,0.00,,,0.00,Wunderground v.1.15,2013-01-29 00:01:00,
2013-01-28 19:11:00,51.8,47.4,30.40,WSW,250,0.0,0.0,85,0.00,,,0.00,Wunderground v.1.15,2013-01-29 00:11:00,
2013-01-28 19:20:00,51.6,47.2,30.40,SSW,204,0.0,0.0,85,0.00,,,0.00,Wunderground v.1.15,2013-01-29 00:20:00,
2013-01-28 19:26:00,51.4,47.0,30.40,WSW,242,0.0,0.0,85,0.00,,,0.00,Wunderground v.1.15,2013-01-29 00:26:00,
2013-01-28 19:31:00,51.2,46.8,30.40,SSW,207,0.0,0.0,85,0.00,,,0.00,Wunderground v.1.15,2013-01-29 00:31:00,
2013-01-28 19:36:00,51.0,47.0,30.40,SW,221,0.0,0.0,86,0.00,,,0.00,Wunderground v.1.15,2013-01-29 00:36:00,
2013-01-28 19:46:00,50.9,46.9,30.40,SW,225,0.0,0.0,86,0.00,,,0.00,Wunderground v.1.15,2013-01-29 00:46:00,
2013-01-28 19:51:00,50.9,46.9,30.40,WSW,256,0.0,0.0,86,0.00,,,0.00,Wunderground v.1.15,2013-01-29 00:51:00,
2013-01-28 19:56:00,50.9,46.9,30.40,West,265,0.0,0.0,86,0.00,,,0.00,Wunderground v.1.15,2013-01-29 00:56:00,
2013-01-28 20:01:00,51.0,47.0,30.40,WSW,246,0.0,0.0,86,0.00,,,0.00,Wunderground v.1.15,2013-01-29 01:01:00,
2013-01-28 20:06:00,50.9,46.9,30.39,West,263,0.0,0.0,86,0.00,,,0.00,Wunderground v.1.15,2013-01-29 01:06:00,
2013-01-28 20:16:00,50.9,46.9,30.39,WSW,252,0.0,0.0,86,0.00,,,0.00,Wunderground v.1.15,2013-01-29 01:16:00,
2013-01-28 20:25:00,51.2,46.8,30.39,WSW,256,0.0,0.0,85,0.00,,,0.00,Wunderground v.1.15,2013-01-29 01:25:00,
2013-01-28 20:31:00,51.3,46.9,30.39,West,262,0.0,0.0,85,0.00,,,0.00,Wunderground v.1.15,2013-01-29 01:31:00,
2013-01-28 20:36:00,51.2,46.8,30.39,NW,320,0.0,0.0,85,0.00,,,0.00,Wunderground v.1.15,2013-01-29 01:36:00,
2013-01-28 20:41:00,51.3,46.6,30.39,WSW,238,0.0,0.0,84,0.00,,,0.00,Wunderground v.1.15,2013-01-29 01:41:00,
2013-01-28 20:46:00,51.3,46.6,30.39,WSW,253,0.0,0.0,84,0.00,,,0.00,Wunderground v.1.15,2013-01-29 01:46:00,
2013-01-28 20:56:00,51.8,46.8,30.39,WSW,253,0.0,0.0,83,0.00,,,0.00,Wunderground v.1.15,2013-01-29 01:56:00,
2013-01-28 21:01:00,52.0,47.0,30.39,West,276,0.0,0.0,83,0.00,,,0.00,Wunderground v.1.15,2013-01-29 02:01:00,
2013-01-28 21:06:00,51.7,46.7,30.39,West,276,0.0,0.0,83,0.00,,,0.00,Wunderground v.1.15,2013-01-29 02:06:00,
2013-01-28 21:15:00,50.8,46.5,30.39,West,273,0.0,0.0,85,0.00,,,0.00,Wunderground v.1.15,2013-01-29 02:15:00,
2013-01-28 21:21:00,50.1,45.8,30.39,West,273,0.0,0.0,85,0.00,,,0.00,Wunderground v.1.15,2013-01-29 02:21:00,
2013-01-28 21:31:00,49.0,45.3,30.39,West,276,0.0,0.0,87,0.00,,,0.00,Wunderground v.1.15,2013-01-29 02:31:00,
2013-01-28 21:36:00,48.2,44.8,30.39,WNW,282,0.0,0.0,88,0.00,,,0.00,Wunderground v.1.15,2013-01-29 02:36:00,
2013-01-28 21:41:00,47.6,44.5,30.39,NW,309,0.0,1.0,89,0.00,,,0.00,Wunderground v.1.15,2013-01-29 02:41:00,
2013-01-28 21:46:00,47.2,44.4,30.39,West,274,1.0,1.0,90,0.00,,,0.00,Wunderground v.1.15,2013-01-29 02:46:00,
2013-01-28 21:51:00,47.9,45.4,30.39,West,276,1.0,1.0,91,0.00,,,0.00,Wunderground v.1.15,2013-01-29 02:51:00,
2013-01-28 22:01:00,49.6,46.2,30.39,WNW,300,1.0,1.0,88,0.00,,,0.00,Wunderground v.1.15,2013-01-29 03:01:00,
2013-01-28 22:06:00,49.6,45.9,30.39,West,280,0.0,1.0,87,0.00,,,0.00,Wunderground v.1.15,2013-01-29 03:06:00,
2013-01-28 22:11:00,50.0,46.3,30.38,West,278,0.0,0.0,87,0.00,,,0.00,Wunderground v.1.15,2013-01-29 03:11:00,
2013-01-28 22:20:00,49.7,46.0,30.38,WSW,255,0.0,0.0,87,0.00,,,0.00,Wunderground v.1.15,2013-01-29 03:20:00,
2013-01-28 22:26:00,49.2,45.5,30.38,WNW,291,0.0,0.0,87,0.00,,,0.00,Wunderground v.1.15,2013-01-29 03:26:00,
2013-01-28 22:36:00,48.1,44.7,30.38,WNW,290,0.0,0.0,88,0.00,,,0.00,Wunderground v.1.15,2013-01-29 03:36:00,
2013-01-28 22:41:00,47.4,44.3,30.38,WNW,290,0.0,0.0,89,0.00,,,0.00,Wunderground v.1.15,2013-01-29 03:41:00,
2013-01-28 22:46:00,46.7,43.6,30.38,WNW,291,0.0,0.0,89,0.00,,,0.00,Wunderground v.1.15,2013-01-29 03:46:00,
2013-01-28 22:51:00,46.3,43.8,30.38,WNW,290,0.0,0.0,91,0.00,,,0.00,Wunderground v.1.15,2013-01-29 03:51:00,
2013-01-28 22:56:00,46.0,43.5,30.38,WNW,291,0.0,0.0,91,0.00,,,0.00,Wunderground v.1.15,2013-01-29 03:56:00,
2013-01-28 23:01:00,45.9,43.7,30.38,West,274,0.0,0.0,92,0.00,,,0.00,Wunderground v.1.15,2013-01-29 04:01:00,
2013-01-28 23:11:00,47.1,45.2,30.38,West,274,0.0,0.0,93,0.00,,,0.00,Wunderground v.1.15,2013-01-29 04:11:00,
2013-01-28 23:20:00,47.4,44.9,30.38,WNW,285,0.0,0.0,91,0.00,,,0.00,Wunderground v.1.15,2013-01-29 04:20:00,
2013-01-28 23:26:00,47.4,44.9,30.38,WNW,285,0.0,0.0,91,0.00,,,0.00,Wunderground v.1.15,2013-01-29 04:26:00,
2013-01-28 23:31:00,47.9,45.4,30.38,WNW,285,0.0,0.0,91,0.00,,,0.00,Wunderground v.1.15,2013-01-29 04:31:00,
2013-01-28 23:36:00,48.2,45.4,30.38,WNW,285,0.0,0.0,90,0.00,,,0.00,Wunderground v.1.15,2013-01-29 04:36:00,
2013-01-28 23:41:00,48.8,45.7,30.37,WSW,253,0.0,0.0,89,0.00,,,0.00,Wunderground v.1.15,2013-01-29 04:41:00,
2013-01-28 23:46:00,49.3,45.6,30.37,WSW,252,0.0,0.0,87,0.00,,,0.00,Wunderground v.1.15,2013-01-29 04:46:00,
2013-01-28 23:51:00,49.4,45.4,30.38,WSW,243,0.0,0.0,86,0.00,,,0.00,Wunderground v.1.15,2013-01-29 04:51:00,
2013-01-28 23:56:00,49.3,45.3,30.37,WSW,256,0.0,0.0,86,0.00,,,0.00,Wunderground v.1.15,2013-01-29 04:56:00,